NY55 weather

Grund Field
Ithaca, New York, United States

Public forecast

Using degrees Fahrenheit for public forecast. Weather courtesy of forecast.io.

Closest aviation weather report (METAR) to Grund Field

Closest report is Ithaca Tompkins Regional Airport, 6.7 nm (12.4 km) ENE. Retrieved 2019/10/22 17:56 UTC (40 minutes ago):

KITH 221756Z 15015G22KT 10SM OVC014 14/11 A2979 RMK AO2 SLP087 T01390111 10139 20128 57032

Closest aviation forecast (TAF) to Grund Field

Closest forecast is Ithaca Tompkins Regional Airport, 6.7 nm (12.4 km) ENE. Retrieved 2019/10/22 18:24 UTC (12 minutes ago):

TAF KITH 221723Z 2218/2318 15012KT P6SM -SHRA OVC015 FM222000 17008KT 3SM -RA OVC015 TEMPO 2222/2302 OVC009 FM230400 25005KT P6SM BKN025 FM231300 28010G20KT P6SM SCT035